createdAt,value
2018-05-27T00:02:07.803Z,4.20
2018-05-27T00:04:42.634Z,4.50
2018-05-27T00:07:17.902Z,4.00
2018-05-27T00:09:53.118Z,4.00
2018-05-27T00:12:28.058Z,4.10
2018-05-27T00:15:02.667Z,4.63
2018-05-27T00:17:37.390Z,3.93
2018-05-27T00:20:12.760Z,4.80
2018-05-27T00:22:47.329Z,4.83
2018-05-27T00:25:21.460Z,4.43
2018-05-27T00:27:56.456Z,4.87
2018-05-27T00:30:31.696Z,4.20
2018-05-27T00:33:06.337Z,4.90
2018-05-27T00:35:41.052Z,4.37
2018-05-27T00:38:15.713Z,4.60
2018-05-27T00:40:50.489Z,4.87
2018-05-27T00:43:25.507Z,4.27
2018-05-27T00:46:00.835Z,4.50
2018-05-27T00:48:35.460Z,4.63
2018-05-27T00:51:10.617Z,4.87
2018-05-27T00:53:56.305Z,4.87
2018-05-27T00:56:31.647Z,5.00
2018-05-27T00:59:06.606Z,5.00
2018-05-27T01:01:41.845Z,5.20
2018-05-27T01:04:16.548Z,5.73
2018-05-27T01:06:51.782Z,5.40
2018-05-27T01:09:26.822Z,5.77
2018-05-27T01:12:02.031Z,7.50
2018-05-27T01:14:37.374Z,5.10
2018-05-27T01:17:12.750Z,5.40
2018-05-27T01:19:47.877Z,5.30
2018-05-27T01:22:23.183Z,6.10
2018-05-27T01:24:58.357Z,6.30
2018-05-27T01:27:33.688Z,5.60
2018-05-27T01:30:09.154Z,5.80
2018-05-27T01:32:44.589Z,5.77
2018-05-27T01:35:20.033Z,5.93
2018-05-27T01:37:54.845Z,5.73
2018-05-27T01:40:29.584Z,6.40
2018-05-27T01:43:04.789Z,6.30
2018-05-27T01:45:39.779Z,6.60
2018-05-27T01:48:14.352Z,6.10
2018-05-27T01:50:49.549Z,5.80
2018-05-27T01:53:24.572Z,6.50
2018-05-27T01:55:59.941Z,6.37
2018-05-27T01:58:34.569Z,6.73
2018-05-27T02:01:09.397Z,7.20
2018-05-27T02:03:44.829Z,6.27
2018-05-27T02:06:19.358Z,6.23
2018-05-27T02:08:54.162Z,6.23
2018-05-27T02:11:29.513Z,6.33
2018-05-27T02:14:03.813Z,6.53
2018-05-27T02:16:38.393Z,6.63
2018-05-27T02:19:12.882Z,7.03
2018-05-27T02:21:48.316Z,7.40
2018-05-27T02:24:23.793Z,6.30
2018-05-27T02:26:59.169Z,6.50
2018-05-27T02:29:34.333Z,6.93
2018-05-27T02:32:10.125Z,7.37
2018-05-27T02:34:44.942Z,6.50
2018-05-27T02:37:20.191Z,7.00
2018-05-27T02:39:55.333Z,7.03
2018-05-27T02:42:30.548Z,7.20
2018-05-27T02:45:04.428Z,6.97
2018-05-27T02:47:39.566Z,7.53
2018-05-27T02:50:14.377Z,7.10
2018-05-27T02:52:49.145Z,7.80
2018-05-27T02:55:24.077Z,9.63
2018-05-27T02:57:58.825Z,6.83
2018-05-27T03:00:33.565Z,7.17
2018-05-27T03:03:08.787Z,7.30
2018-05-27T03:05:43.841Z,7.23
2018-05-27T03:08:18.841Z,7.20
2018-05-27T03:10:54.002Z,8.10
2018-05-27T03:13:29.048Z,7.53
2018-05-27T03:16:04.409Z,7.30
2018-05-27T03:18:39.616Z,7.40
2018-05-27T03:21:14.688Z,6.97
2018-05-27T03:23:49.952Z,7.60
2018-05-27T03:26:24.935Z,7.50
2018-05-27T03:29:00.016Z,6.30
2018-05-27T03:31:35.012Z,6.83
2018-05-27T03:34:10.215Z,6.60
2018-05-27T03:36:45.445Z,7.30
2018-05-27T03:39:20.819Z,7.03
2018-05-27T03:41:55.985Z,7.50
2018-05-27T03:44:31.041Z,6.77
2018-05-27T03:47:06.454Z,7.33
2018-05-27T03:49:41.184Z,7.13
2018-05-27T03:52:15.584Z,8.10
2018-05-27T03:54:50.449Z,8.63
2018-05-27T03:57:26.033Z,8.33
2018-05-27T04:00:03.006Z,7.80
2018-05-27T04:02:38.007Z,8.60
2018-05-27T04:18:47.265Z,7.50
2018-05-27T04:21:22.205Z,8.20
2018-05-27T04:23:57.025Z,7.87
2018-05-27T04:26:31.915Z,7.43
2018-05-27T04:29:06.673Z,7.80
2018-05-27T04:31:45.307Z,7.50
2018-05-27T04:34:20.208Z,7.90
2018-05-27T04:36:56.201Z,8.00
2018-05-27T04:39:30.807Z,9.00
2018-05-27T04:42:05.614Z,7.70
2018-05-27T04:44:41.191Z,8.43
2018-05-27T04:47:16.019Z,8.57
2018-05-27T04:49:50.722Z,8.20
2018-05-27T04:52:25.372Z,8.67
2018-05-27T04:55:00.155Z,8.73
2018-05-27T04:57:34.900Z,9.40
2018-05-27T05:00:09.809Z,8.97
2018-05-27T05:02:44.565Z,8.67
2018-05-27T05:05:19.241Z,8.80
2018-05-27T05:07:54.249Z,9.30
2018-05-27T05:10:29.001Z,9.53
2018-05-27T05:13:03.906Z,9.27
2018-05-27T05:15:38.646Z,10.20
2018-05-27T05:18:13.687Z,9.40
2018-05-27T05:20:48.497Z,8.80
2018-05-27T05:23:23.242Z,9.80
2018-05-27T05:25:58.073Z,9.20
2018-05-27T05:28:33.125Z,9.93
2018-05-27T05:31:08.108Z,10.37
2018-05-27T05:33:43.081Z,9.50
2018-05-27T05:36:17.970Z,9.77
2018-05-27T05:38:52.569Z,10.03
2018-05-27T05:41:27.600Z,10.47
2018-05-27T05:44:02.217Z,9.50
2018-05-27T05:46:36.916Z,10.13
2018-05-27T05:49:11.864Z,12.40
2018-05-27T05:51:46.676Z,9.83
2018-05-27T05:54:21.437Z,9.90
2018-05-27T05:56:56.228Z,10.00
2018-05-27T05:59:30.969Z,9.70
2018-05-27T06:02:05.650Z,9.70
2018-05-27T06:04:40.655Z,9.40
2018-05-27T06:07:15.464Z,10.87
2018-05-27T06:09:50.323Z,11.27
2018-05-27T06:12:25.225Z,10.37
2018-05-27T06:15:00.173Z,10.53
2018-05-27T06:17:34.820Z,9.90
2018-05-27T06:20:09.721Z,9.90
2018-05-27T06:22:44.562Z,11.23
2018-05-27T06:25:19.491Z,10.30
2018-05-27T06:27:54.326Z,10.97
2018-05-27T06:30:29.293Z,10.97
2018-05-27T06:33:04.183Z,11.20
2018-05-27T06:35:39.033Z,10.53
2018-05-27T06:38:13.853Z,9.77
2018-05-27T06:40:48.866Z,10.33
2018-05-27T06:43:23.913Z,10.40
2018-05-27T06:45:58.535Z,10.17
2018-05-27T06:48:33.380Z,11.00
2018-05-27T06:51:08.148Z,10.77
2018-05-27T06:53:43.689Z,10.50
2018-05-27T06:56:18.392Z,10.77
2018-05-27T06:58:53.349Z,10.10
2018-05-27T07:01:28.097Z,10.40
2018-05-27T07:04:02.857Z,10.43
2018-05-27T07:06:37.649Z,11.93
2018-05-27T07:09:13.163Z,11.20
2018-05-27T07:11:47.930Z,10.10
2018-05-27T07:14:22.721Z,10.93
2018-05-27T07:16:57.540Z,10.70
2018-05-27T07:19:32.439Z,11.57
2018-05-27T07:22:07.448Z,10.67
2018-05-27T07:24:42.165Z,10.37
2018-05-27T07:27:16.990Z,10.50
2018-05-27T07:29:51.906Z,10.33
2018-05-27T07:32:26.653Z,9.70
2018-05-27T07:35:01.543Z,9.83
2018-05-27T07:37:36.441Z,9.40
2018-05-27T07:40:11.244Z,10.03
2018-05-27T07:42:46.204Z,10.23
2018-05-27T07:45:21.096Z,10.27
2018-05-27T07:47:55.821Z,9.57
2018-05-27T07:50:30.893Z,9.50
2018-05-27T07:53:05.495Z,9.20
2018-05-27T07:55:40.434Z,9.43
2018-05-27T07:58:15.332Z,8.70
2018-05-27T08:00:50.109Z,8.80
2018-05-27T08:03:24.701Z,8.60
2018-05-27T08:05:59.561Z,10.10
2018-05-27T08:08:34.405Z,9.70
2018-05-27T08:11:09.382Z,9.37
2018-05-27T08:13:44.233Z,9.10
2018-05-27T08:16:18.989Z,9.23
2018-05-27T08:18:53.710Z,9.30
2018-05-27T08:21:28.446Z,10.10
2018-05-27T08:24:03.150Z,8.70
2018-05-27T08:26:37.853Z,9.40
2018-05-27T08:29:12.514Z,8.73
2018-05-27T08:31:47.448Z,8.70
2018-05-27T08:34:22.943Z,9.90
2018-05-27T08:36:58.137Z,8.47
2018-05-27T08:39:32.965Z,9.60
2018-05-27T08:42:07.794Z,8.50
2018-05-27T08:44:42.529Z,9.00
2018-05-27T08:47:17.381Z,8.57
2018-05-27T08:49:52.183Z,8.50
2018-05-27T08:52:27.029Z,8.63
2018-05-27T08:55:01.817Z,8.97
2018-05-27T08:57:36.699Z,8.97
2018-05-27T09:00:11.998Z,8.27
2018-05-27T09:02:46.717Z,8.53
2018-05-27T09:05:21.377Z,8.90
2018-05-27T09:07:56.109Z,7.80
2018-05-27T09:10:30.897Z,7.20
2018-05-27T09:13:05.660Z,6.63
2018-05-27T09:15:40.387Z,6.80
2018-05-27T09:18:15.270Z,6.83
2018-05-27T09:20:50.168Z,6.60
2018-05-27T09:23:24.877Z,6.97
2018-05-27T09:25:59.788Z,6.80
2018-05-27T09:28:34.601Z,6.60
2018-05-27T09:31:09.077Z,6.60
2018-05-27T09:33:43.869Z,6.00
2018-05-27T09:36:18.784Z,7.07
2018-05-27T09:38:53.650Z,7.07
2018-05-27T09:41:28.500Z,7.50
2018-05-27T09:44:03.296Z,7.00
2018-05-27T09:46:38.458Z,6.83
2018-05-27T09:49:13.198Z,7.33
2018-05-27T09:51:47.824Z,6.97
2018-05-27T09:54:22.859Z,6.33
2018-05-27T09:56:57.802Z,7.90
2018-05-27T09:59:32.584Z,9.00
2018-05-27T10:02:07.786Z,8.90
2018-05-27T10:04:42.768Z,8.30
2018-05-27T10:07:17.592Z,9.37
2018-05-27T10:09:52.578Z,8.37
2018-05-27T10:12:27.403Z,8.40
2018-05-27T10:15:02.133Z,8.57
2018-05-27T10:17:36.901Z,8.97
2018-05-27T10:20:11.888Z,8.43
2018-05-27T10:22:46.837Z,9.10
2018-05-27T10:25:21.580Z,8.10
2018-05-27T10:27:56.502Z,7.93
2018-05-27T10:30:31.454Z,7.53
2018-05-27T10:33:06.413Z,8.97
2018-05-27T10:35:41.013Z,8.20
2018-05-27T10:38:15.706Z,8.20
2018-05-27T10:40:50.849Z,9.03
2018-05-27T10:43:25.574Z,8.47
2018-05-27T10:46:00.596Z,9.17
2018-05-27T10:48:35.047Z,8.70
2018-05-27T10:51:10.158Z,8.60
2018-05-27T10:53:44.773Z,8.57
2018-05-27T10:56:19.716Z,8.20
2018-05-27T10:58:54.602Z,8.60
2018-05-27T11:01:29.214Z,8.50
2018-05-27T11:04:04.042Z,7.73
2018-05-27T11:06:38.849Z,9.37
2018-05-27T11:09:13.732Z,7.70
2018-05-27T11:11:48.608Z,8.47
2018-05-27T11:14:23.249Z,8.70
2018-05-27T11:16:58.066Z,8.43
2018-05-27T11:19:32.714Z,7.90
2018-05-27T11:22:07.666Z,9.20
2018-05-27T11:24:43.108Z,8.90
2018-05-27T11:27:18.146Z,8.53
2018-05-27T11:29:53.066Z,7.47
2018-05-27T11:32:27.785Z,6.50
2018-05-27T11:35:02.282Z,7.87
2018-05-27T11:37:40.281Z,8.90
2018-05-27T11:40:14.945Z,7.40
2018-05-27T11:42:49.970Z,8.10
2018-05-27T11:45:24.556Z,8.33
2018-05-27T11:47:59.529Z,8.10
2018-05-27T11:50:34.438Z,7.80
2018-05-27T11:53:09.714Z,8.30
2018-05-27T11:55:44.418Z,8.20
2018-05-27T11:58:19.570Z,7.53
2018-05-27T12:00:54.803Z,8.00
2018-05-27T12:03:29.476Z,6.30
2018-05-27T12:06:04.404Z,6.90
2018-05-27T12:08:39.243Z,9.30
2018-05-27T12:11:13.769Z,7.27
2018-05-27T12:13:48.688Z,6.40
2018-05-27T12:16:23.577Z,7.10
2018-05-27T12:18:58.644Z,7.33
2018-05-27T12:21:33.482Z,7.53
2018-05-27T12:24:08.450Z,7.10
2018-05-27T12:26:43.364Z,6.23
2018-05-27T12:29:18.090Z,6.90
2018-05-27T12:31:53.194Z,7.50
2018-05-27T12:34:28.228Z,6.73
2018-05-27T12:37:03.561Z,6.20
2018-05-27T12:39:38.804Z,6.80
2018-05-27T12:42:13.649Z,6.50
2018-05-27T12:44:48.704Z,6.63
2018-05-27T12:47:23.380Z,6.63
2018-05-27T12:49:57.861Z,6.50
2018-05-27T12:52:32.989Z,6.20
2018-05-27T12:55:08.002Z,6.80
2018-05-27T12:57:42.827Z,7.00
2018-05-27T13:00:17.648Z,7.10
2018-05-27T13:02:52.699Z,7.37
2018-05-27T13:05:27.841Z,7.10
2018-05-27T13:08:02.324Z,6.70
2018-05-27T13:10:37.478Z,7.57
2018-05-27T13:13:12.641Z,7.50
2018-05-27T13:15:47.661Z,7.40
2018-05-27T13:18:22.709Z,7.17
2018-05-27T13:20:57.953Z,7.20
2018-05-27T13:23:32.777Z,7.20
2018-05-27T13:26:07.476Z,7.20
2018-05-27T13:28:42.444Z,6.77
2018-05-27T13:31:17.145Z,6.90
2018-05-27T13:33:51.925Z,6.63
2018-05-27T13:36:26.840Z,7.60
2018-05-27T13:39:01.738Z,7.23
2018-05-27T13:41:36.688Z,7.30
2018-05-27T13:44:11.541Z,7.60
2018-05-27T13:46:46.372Z,8.50
2018-05-27T13:49:21.420Z,7.17
2018-05-27T13:51:56.282Z,6.90
2018-05-27T13:54:31.429Z,7.80
2018-05-27T13:57:06.340Z,7.30
2018-05-27T13:59:41.134Z,7.63
2018-05-27T14:02:15.955Z,7.00
2018-05-27T14:04:50.845Z,8.20
2018-05-27T14:07:25.500Z,7.40
2018-05-27T14:10:00.409Z,7.63
2018-05-27T14:12:35.187Z,7.60
2018-05-27T14:15:09.407Z,7.33
2018-05-27T14:17:44.517Z,7.53
2018-05-27T14:20:19.575Z,7.00
2018-05-27T14:22:54.361Z,6.57
2018-05-27T14:25:29.376Z,7.07
2018-05-27T14:28:04.172Z,7.47
2018-05-27T14:30:38.537Z,7.50
2018-05-27T14:33:13.994Z,7.70
2018-05-27T14:35:48.885Z,7.30
2018-05-27T14:38:24.017Z,7.63
2018-05-27T14:40:58.817Z,7.70
2018-05-27T14:43:33.625Z,6.70
2018-05-27T14:46:08.409Z,7.83
2018-05-27T14:48:43.227Z,7.10
2018-05-27T14:51:18.089Z,7.63
2018-05-27T14:53:53.095Z,7.10
2018-05-27T14:56:27.977Z,8.00
2018-05-27T14:59:02.826Z,7.00
2018-05-27T15:01:37.780Z,7.90
2018-05-27T15:04:12.931Z,7.77
2018-05-27T15:06:47.609Z,6.60
2018-05-27T15:09:22.412Z,7.20
2018-05-27T15:11:57.431Z,7.53
2018-05-27T15:14:32.349Z,6.83
2018-05-27T15:17:07.252Z,7.30
2018-05-27T15:19:42.294Z,7.40
2018-05-27T15:22:16.847Z,8.20
2018-05-27T15:24:52.092Z,6.90
2018-05-27T15:27:26.836Z,7.70
2018-05-27T15:30:01.841Z,6.47
2018-05-27T15:32:36.801Z,7.90
2018-05-27T15:35:11.949Z,7.30
2018-05-27T15:37:46.657Z,6.90
2018-05-27T15:40:21.476Z,6.83
2018-05-27T15:42:56.285Z,7.33
2018-05-27T15:45:31.253Z,7.37
2018-05-27T15:48:05.860Z,7.37
2018-05-27T15:50:40.824Z,7.90
2018-05-27T15:53:15.709Z,7.03
2018-05-27T15:55:50.777Z,7.33
2018-05-27T15:58:25.725Z,8.17
2018-05-27T16:01:00.644Z,7.30
2018-05-27T16:03:35.453Z,7.33
2018-05-27T16:06:10.426Z,7.40
2018-05-27T16:08:45.180Z,7.60
2018-05-27T16:11:20.009Z,7.70
2018-05-27T16:13:54.966Z,7.87
2018-05-27T16:16:29.845Z,8.33
2018-05-27T16:19:04.312Z,7.83
2018-05-27T16:21:39.244Z,8.60
2018-05-27T16:24:14.359Z,8.03
2018-05-27T16:26:49.152Z,8.30
2018-05-27T16:29:23.803Z,9.20
2018-05-27T16:31:58.511Z,8.73
2018-05-27T16:34:33.248Z,8.00
2018-05-27T16:37:08.239Z,9.10
2018-05-27T16:39:43.433Z,9.47
2018-05-27T16:42:18.149Z,9.67
2018-05-27T16:44:53.593Z,8.47
2018-05-27T16:47:28.690Z,8.27
2018-05-27T16:53:00.941Z,10.43
2018-05-27T16:55:35.532Z,8.60
2018-05-27T16:58:10.689Z,8.43
2018-05-27T17:00:45.340Z,8.93
2018-05-27T17:03:20.005Z,9.53
2018-05-27T17:05:54.826Z,7.70
2018-05-27T17:08:38.816Z,9.73
2018-05-27T17:11:13.256Z,9.30
2018-05-27T17:13:47.964Z,9.37
2018-05-27T17:16:22.768Z,8.47
2018-05-27T17:18:57.608Z,10.17
2018-05-27T17:21:32.867Z,9.17
2018-05-27T17:24:07.905Z,9.10
2018-05-27T17:26:42.609Z,9.27
2018-05-27T17:29:17.911Z,9.10
2018-05-27T17:31:52.671Z,9.40
2018-05-27T17:34:27.621Z,9.50
2018-05-27T17:37:02.520Z,8.90
2018-05-27T17:39:37.761Z,9.30
2018-05-27T17:42:12.549Z,8.30
2018-05-27T17:44:47.609Z,9.47
2018-05-27T17:47:22.995Z,6.40
2018-05-27T17:49:58.249Z,6.87
2018-05-27T17:52:33.492Z,7.20
2018-05-27T17:55:08.849Z,7.50
2018-05-27T17:57:43.672Z,7.33
2018-05-27T18:00:18.549Z,7.20
2018-05-27T18:02:53.483Z,7.33
2018-05-27T18:05:28.593Z,8.47
2018-05-27T18:08:03.383Z,8.30
2018-05-27T18:10:38.128Z,8.70
2018-05-27T18:13:14.526Z,10.63
2018-05-27T18:15:49.897Z,11.53
2018-05-27T18:18:25.281Z,11.10
2018-05-27T18:21:00.629Z,11.90
2018-05-27T18:23:35.841Z,11.47
2018-05-27T18:26:10.664Z,13.60
2018-05-27T18:28:45.497Z,13.33
2018-05-27T18:31:20.531Z,12.57
2018-05-27T18:33:55.305Z,13.60
2018-05-27T18:36:30.109Z,14.10
2018-05-27T18:39:04.172Z,13.83
2018-05-27T18:41:40.050Z,14.40
2018-05-27T18:44:14.454Z,14.70
2018-05-27T18:46:49.368Z,12.83
2018-05-27T18:49:24.486Z,14.60
2018-05-27T18:51:59.925Z,14.10
2018-05-27T18:54:37.521Z,13.17
2018-05-27T18:57:12.108Z,11.90
2018-05-27T18:59:46.994Z,11.60
2018-05-27T19:02:21.924Z,10.93
2018-05-27T19:04:56.828Z,10.80
2018-05-27T19:07:31.805Z,11.40
2018-05-27T19:10:06.641Z,10.63
2018-05-27T19:12:41.528Z,12.70
2018-05-27T19:15:16.078Z,12.87
2018-05-27T19:17:51.205Z,10.90
2018-05-27T19:20:26.874Z,10.53
2018-05-27T19:23:01.625Z,10.40
2018-05-27T19:25:36.441Z,11.90
2018-05-27T19:28:11.233Z,12.73
2018-05-27T19:30:46.080Z,12.20
2018-05-27T19:33:20.984Z,11.80
2018-05-27T19:35:55.980Z,11.47
2018-05-27T19:38:31.009Z,12.10
2018-05-27T19:41:05.738Z,10.77
2018-05-27T19:43:40.660Z,11.60
2018-05-27T19:46:15.300Z,11.70
2018-05-27T19:48:50.072Z,12.40
2018-05-27T19:51:25.040Z,11.87
2018-05-27T19:54:00.160Z,12.50
2018-05-27T19:56:35.049Z,11.93
2018-05-27T19:59:09.858Z,12.50
2018-05-27T20:01:44.796Z,11.87
2018-05-27T20:04:19.312Z,12.77
2018-05-27T20:06:54.349Z,15.30
2018-05-27T20:09:29.390Z,18.00
2018-05-27T20:12:04.328Z,17.77
2018-05-27T20:14:39.145Z,18.37
2018-05-27T20:17:14.692Z,19.67
2018-05-27T20:19:49.428Z,19.40
2018-05-27T20:22:24.897Z,18.30
2018-05-27T20:25:00.456Z,18.77
2018-05-27T20:27:35.360Z,15.90
2018-05-27T20:30:10.289Z,15.33
2018-05-27T20:32:44.955Z,17.57
2018-05-27T20:35:19.738Z,18.53
2018-05-27T20:37:54.973Z,16.67
2018-05-27T20:40:29.921Z,16.03
2018-05-27T20:43:04.720Z,15.67
2018-05-27T20:45:39.404Z,14.93
2018-05-27T20:48:14.626Z,16.07
2018-05-27T20:50:49.308Z,17.20
2018-05-27T20:53:24.564Z,18.40
2018-05-27T20:55:59.829Z,16.47
2018-05-27T20:58:34.977Z,17.17
2018-05-27T21:01:09.816Z,18.33
2018-05-27T21:03:44.837Z,21.13
2018-05-27T21:06:20.051Z,16.63
2018-05-27T21:08:54.822Z,18.80
2018-05-27T21:11:29.295Z,19.50
2018-05-27T21:14:03.883Z,17.40
2018-05-27T21:16:39.197Z,16.97
2018-05-27T21:19:14.159Z,17.87
2018-05-27T21:21:49.106Z,17.10
2018-05-27T21:24:24.165Z,18.60
2018-05-27T21:26:58.908Z,17.23
2018-05-27T21:29:33.797Z,18.13
2018-05-27T21:32:08.753Z,16.63
2018-05-27T21:34:44.483Z,18.40
2018-05-27T21:37:18.899Z,18.83
2018-05-27T21:39:54.009Z,19.80
2018-05-27T21:42:28.529Z,21.23
2018-05-27T21:45:03.247Z,22.03
2018-05-27T21:47:38.089Z,20.20
2018-05-27T21:50:12.284Z,22.20
2018-05-27T21:52:46.788Z,22.53
2018-05-27T21:55:21.762Z,21.50
2018-05-27T21:57:56.562Z,21.50
2018-05-27T22:00:32.065Z,21.40
2018-05-27T22:03:06.524Z,22.77
2018-05-27T22:05:41.454Z,20.77
2018-05-27T22:08:16.148Z,23.03
2018-05-27T22:10:50.942Z,22.97
2018-05-27T22:13:25.801Z,22.00
2018-05-27T22:16:00.814Z,21.73
2018-05-27T22:18:36.066Z,22.70
2018-05-27T22:21:10.883Z,23.70
2018-05-27T22:23:45.741Z,22.80
2018-05-27T22:26:20.477Z,21.47
2018-05-27T22:28:55.297Z,23.80
2018-05-27T22:31:30.117Z,21.63
2018-05-27T22:34:04.819Z,22.87
2018-05-27T22:36:39.694Z,21.17
2018-05-27T22:39:14.514Z,22.80
2018-05-27T22:41:49.274Z,22.70
2018-05-27T22:44:24.245Z,22.57
2018-05-27T22:46:59.181Z,24.60
2018-05-27T22:49:34.228Z,23.77
2018-05-27T22:52:09.472Z,22.30
2018-05-27T22:54:44.224Z,22.57
2018-05-27T22:57:19.023Z,23.60
2018-05-27T22:59:53.978Z,22.13
2018-05-27T23:02:28.577Z,23.37
2018-05-27T23:05:03.579Z,21.80
2018-05-27T23:07:38.492Z,22.63
2018-05-27T23:10:13.458Z,21.10
2018-05-27T23:12:48.438Z,21.20
2018-05-27T23:15:23.449Z,24.07
2018-05-27T23:17:58.380Z,23.83
2018-05-27T23:20:33.121Z,27.03
2018-05-27T23:23:07.984Z,25.97
2018-05-27T23:25:42.805Z,26.80
2018-05-27T23:28:17.704Z,25.37
2018-05-27T23:30:52.557Z,24.50
2018-05-27T23:33:27.151Z,27.13
2018-05-27T23:36:02.097Z,24.40
2018-05-27T23:38:36.916Z,25.73
2018-05-27T23:41:11.849Z,25.80
2018-05-27T23:43:46.806Z,24.67
2018-05-27T23:46:21.761Z,23.57
2018-05-27T23:48:56.700Z,23.33
2018-05-27T23:51:31.769Z,23.53
2018-05-27T23:54:06.556Z,23.93
2018-05-27T23:56:41.574Z,22.90
2018-05-27T23:59:16.421Z,25.90
